Time;durP1;ratioP1;P1;durP2;ratioP2;P2;SDS_P1;SDS_P2;PMS_P1;PMS_P2;Temp;Humidity;BMP_temperature;BMP_pressure;BME280_temperature;BME280_humidity;BME280_pressure;Samples;Min_cycle;Max_cycle;Signal;HPM_P1;HPM_P2
2023/11/14 00:00:13;;;;;;;10.53;3.10;;;11.90;99.90;;;;;;4958475;29;20470;-80
2023/11/14 00:02:39;;;;;;;20.03;4.50;;;11.90;99.90;;;;;;4951293;29;20547;-80
2023/11/14 00:05:07;;;;;;;21.57;5.40;;;11.90;99.90;;;;;;4959515;29;21027;-79
2023/11/14 00:07:34;;;;;;;14.73;4.23;;;11.90;99.90;;;;;;4954846;29;20475;-80
2023/11/14 00:10:01;;;;;;;17.13;3.73;;;11.90;99.90;;;;;;4944657;29;20926;-79
2023/11/14 00:12:27;;;;;;;17.63;3.73;;;11.90;99.90;;;;;;4958096;29;20555;-80
2023/11/14 00:14:56;;;;;;;17.73;4.00;;;11.90;99.90;;;;;;4959937;29;20508;-79
2023/11/14 00:17:22;;;;;;;18.40;4.17;;;11.90;99.90;;;;;;4958380;29;20966;-80
2023/11/14 00:19:49;;;;;;;22.87;4.13;;;11.90;99.90;;;;;;4958181;29;20531;-78
2023/11/14 00:22:16;;;;;;;19.67;4.10;;;11.90;99.90;;;;;;4953149;29;20523;-78
2023/11/14 00:24:43;;;;;;;24.23;5.10;;;11.90;99.90;;;;;;4954743;29;20804;-80
2023/11/14 00:27:10;;;;;;;19.60;5.10;;;11.90;99.90;;;;;;4958600;29;20496;-79
2023/11/14 00:29:38;;;;;;;21.93;4.07;;;11.90;99.90;;;;;;4957006;29;20465;-79
2023/11/14 00:32:06;;;;;;;14.80;4.00;;;11.90;99.90;;;;;;4944082;29;20957;-80
2023/11/14 00:34:33;;;;;;;21.27;4.67;;;11.90;99.90;;;;;;4945041;29;20460;-79
2023/11/14 00:37:00;;;;;;;12.40;3.40;;;12.00;99.90;;;;;;4959554;29;20502;-79
2023/11/14 00:39:27;;;;;;;20.80;4.07;;;12.00;99.90;;;;;;4961073;29;20841;-79
2023/11/14 00:41:54;;;;;;;14.80;3.47;;;11.90;99.90;;;;;;4965844;29;20476;-79
2023/11/14 00:44:21;;;;;;;15.00;4.00;;;11.90;99.90;;;;;;4960800;29;20460;-80
2023/11/14 00:46:48;;;;;;;20.07;3.93;;;11.90;99.90;;;;;;4957787;29;20487;-79
2023/11/14 00:49:16;;;;;;;23.37;5.57;;;11.90;99.90;;;;;;4957837;29;20871;-79
2023/11/14 00:51:43;;;;;;;15.13;5.43;;;12.00;99.90;;;;;;4957452;29;20460;-79
2023/11/14 00:54:10;;;;;;;24.03;4.87;;;11.90;99.90;;;;;;4955192;29;20470;-78
2023/11/14 00:56:38;;;;;;;17.10;4.93;;;11.90;99.90;;;;;;4957901;29;20479;-79
2023/11/14 00:59:06;;;;;;;24.63;4.27;;;11.90;99.90;;;;;;4941879;29;20498;-79
2023/11/14 01:01:32;;;;;;;21.80;4.60;;;11.90;99.90;;;;;;4938719;29;21140;-79
2023/11/14 01:03:59;;;;;;;16.50;3.40;;;11.90;99.90;;;;;;4956265;29;20463;-78
2023/11/14 01:06:27;;;;;;;17.80;4.10;;;11.90;99.90;;;;;;4956569;29;20861;-79
2023/11/14 01:08:55;;;;;;;22.50;4.53;;;11.90;99.90;;;;;;4955820;29;20452;-80
2023/11/14 01:11:23;;;;;;;21.97;5.13;;;11.90;99.90;;;;;;4955000;29;20453;-80
2023/11/14 01:13:50;;;;;;;19.13;4.30;;;11.70;99.90;;;;;;4938224;29;20898;-79
2023/11/14 01:16:17;;;;;;;22.60;5.00;;;11.70;99.90;;;;;;4938347;29;20920;-79
2023/11/14 01:18:43;;;;;;;16.97;3.70;;;11.70;99.90;;;;;;4937829;29;20528;-79
2023/11/14 01:21:15;;;;;;;17.33;4.17;;;11.70;99.90;;;;;;4944889;29;20486;-79
2023/11/14 01:23:44;;;;;;;13.13;4.43;;;11.80;99.90;;;;;;4949808;29;20448;-78
2023/11/14 01:26:11;;;;;;;20.97;4.20;;;11.80;99.90;;;;;;4956768;29;20473;-79
2023/11/14 01:28:38;;;;;;;15.93;4.07;;;11.80;99.90;;;;;;4956994;29;20970;-78
2023/11/14 01:31:04;;;;;;;27.43;4.43;;;11.70;99.90;;;;;;4956529;29;20460;-78
2023/11/14 01:33:31;;;;;;;22.90;5.00;;;11.60;99.90;;;;;;4956720;29;20455;-78
2023/11/14 01:35:58;;;;;;;24.60;4.17;;;11.70;99.90;;;;;;4951627;29;20480;-79
2023/11/14 01:38:25;;;;;;;16.70;4.67;;;11.80;99.90;;;;;;4955776;28;20491;-79
2023/11/14 01:40:53;;;;;;;15.37;4.50;;;11.70;99.90;;;;;;4956418;29;20467;-79
2023/11/14 01:43:20;;;;;;;16.70;4.20;;;11.80;99.90;;;;;;4956065;29;20455;-79
2023/11/14 01:45:46;;;;;;;27.67;5.27;;;11.80;99.90;;;;;;4955056;28;20484;-77
2023/11/14 01:48:14;;;;;;;14.57;4.37;;;11.80;99.90;;;;;;4955362;29;20523;-77
2023/11/14 01:50:41;;;;;;;19.10;3.80;;;11.80;99.90;;;;;;4945540;29;20484;-79
2023/11/14 01:53:08;;;;;;;24.37;4.50;;;11.90;99.90;;;;;;4957006;29;20526;-79
2023/11/14 01:55:36;;;;;;;11.50;3.87;;;11.90;99.90;;;;;;4953203;29;20558;-79
2023/11/14 01:58:04;;;;;;;22.70;4.20;;;11.80;99.90;;;;;;4940116;29;20553;-79
2023/11/14 02:00:31;;;;;;;14.40;3.63;;;11.80;99.90;;;;;;4957090;29;20467;-80
2023/11/14 02:03:00;;;;;;;19.13;4.30;;;11.80;99.90;;;;;;4951674;29;20493;-79
2023/11/14 02:05:29;;;;;;;13.60;3.63;;;11.80;99.90;;;;;;4954651;29;20560;-78
2023/11/14 02:07:56;;;;;;;19.57;4.20;;;11.80;99.90;;;;;;4955528;29;20466;-77
2023/11/14 02:10:23;;;;;;;16.77;3.40;;;11.90;99.90;;;;;;4956259;29;20466;-80
2023/11/14 02:12:50;;;;;;;17.70;3.80;;;12.00;99.90;;;;;;4956630;29;20457;-78
2023/11/14 02:15:21;;;;;;;31.57;7.83;;;12.00;99.90;;;;;;4956453;29;20472;-78
2023/11/14 02:17:48;;;;;;;18.30;4.10;;;12.00;99.90;;;;;;4954905;29;20486;-78
2023/11/14 02:20:15;;;;;;;19.27;4.83;;;11.90;99.90;;;;;;4953644;29;20496;-80
2023/11/14 02:22:42;;;;;;;23.80;4.83;;;11.90;99.90;;;;;;4954447;29;20542;-79
2023/11/14 02:25:10;;;;;;;22.10;4.20;;;11.90;99.90;;;;;;4955501;29;21087;-79
2023/11/14 02:27:37;;;;;;;15.37;4.23;;;12.00;99.90;;;;;;4956397;29;20459;-78
2023/11/14 02:30:06;;;;;;;18.60;3.60;;;12.00;99.90;;;;;;4955800;29;20448;-79
2023/11/14 02:32:32;;;;;;;23.30;5.87;;;12.00;99.90;;;;;;4956264;29;20554;-78
2023/11/14 02:34:59;;;;;;;12.67;3.47;;;12.00;99.90;;;;;;4956260;29;20477;-80
2023/11/14 02:37:26;;;;;;;27.13;4.80;;;12.00;99.90;;;;;;4950465;29;20487;-77
2023/11/14 02:39:54;;;;;;;17.20;4.00;;;11.90;99.90;;;;;;4956225;29;20496;-79
2023/11/14 02:42:22;;;;;;;18.63;4.20;;;11.90;99.90;;;;;;4956211;29;20495;-79
2023/11/14 02:44:49;;;;;;;21.20;4.40;;;11.80;99.90;;;;;;4954951;29;20519;-79
2023/11/14 02:47:16;;;;;;;22.93;4.40;;;11.80;99.90;;;;;;4955579;29;20456;-79
2023/11/14 02:49:56;;;;;;;25.60;5.30;;;11.90;99.90;;;;;;4955286;29;20476;-78
2023/11/14 02:52:24;;;;;;;18.93;4.90;;;11.90;99.90;;;;;;4954899;29;20955;-78
2023/11/14 02:54:51;;;;;;;18.50;4.60;;;11.90;99.90;;;;;;4956116;29;20481;-78
2023/11/14 02:57:18;;;;;;;17.63;3.67;;;11.80;99.90;;;;;;4957549;28;20464;-81
2023/11/14 02:59:47;;;;;;;19.70;4.83;;;11.70;99.90;;;;;;4947311;29;20504;-78
2023/11/14 03:02:14;;;;;;;13.97;4.00;;;11.50;99.90;;;;;;4940174;29;21161;-80
2023/11/14 03:04:41;;;;;;;19.13;4.40;;;11.50;99.90;;;;;;4952831;29;20455;-79
2023/11/14 03:07:08;;;;;;;16.23;4.07;;;11.30;99.90;;;;;;4950446;29;20467;-79
2023/11/14 03:09:34;;;;;;;25.53;4.40;;;11.30;99.90;;;;;;4944598;29;20475;-81
2023/11/14 03:12:02;;;;;;;23.83;4.60;;;11.30;99.90;;;;;;4958198;29;20469;-78
2023/11/14 03:14:29;;;;;;;16.00;3.87;;;11.30;99.90;;;;;;4958434;29;20463;-80
2023/11/14 03:16:57;;;;;;;15.50;4.13;;;11.30;99.90;;;;;;4958984;29;20912;-81
2023/11/14 03:19:23;;;;;;;27.27;3.83;;;11.30;99.90;;;;;;4958218;29;21035;-79
2023/11/14 03:21:50;;;;;;;21.23;3.63;;;11.30;99.90;;;;;;4958339;29;20557;-80
2023/11/14 03:24:17;;;;;;;13.70;4.50;;;11.20;99.90;;;;;;4959055;29;20456;-81
2023/11/14 03:26:44;;;;;;;20.10;4.93;;;11.20;99.90;;;;;;4951566;29;20479;-81
2023/11/14 03:29:11;;;;;;;22.47;4.63;;;11.20;99.90;;;;;;4958935;29;20458;-81
2023/11/14 03:31:38;;;;;;;18.27;4.93;;;11.10;99.90;;;;;;4959292;29;20489;-79
2023/11/14 03:34:07;;;;;;;23.10;5.40;;;11.10;99.90;;;;;;4960687;29;20460;-81
2023/11/14 03:36:34;;;;;;;28.33;7.40;;;11.10;99.90;;;;;;4957242;29;20489;-79
2023/11/14 03:39:00;;;;;;;18.20;4.93;;;11.00;99.90;;;;;;4948051;29;20848;-80
2023/11/14 03:41:27;;;;;;;15.63;3.80;;;11.00;99.90;;;;;;4940138;29;20457;-80
2023/11/14 03:43:54;;;;;;;19.97;4.40;;;11.00;99.90;;;;;;4940452;29;20458;-80
2023/11/14 03:46:21;;;;;;;19.47;4.10;;;11.00;99.90;;;;;;4940033;29;20481;-80
2023/11/14 03:48:48;;;;;;;12.47;4.40;;;10.90;99.90;;;;;;4959300;29;20462;-80
2023/11/14 03:51:16;;;;;;;22.57;5.33;;;10.90;99.90;;;;;;4953343;29;20465;-82
2023/11/14 03:53:44;;;;;;;30.70;4.17;;;10.90;99.90;;;;;;4957263;29;20477;-81
2023/11/14 03:56:11;;;;;;;31.07;5.67;;;10.90;99.90;;;;;;4959330;29;20512;-80
2023/11/14 03:58:40;;;;;;;29.50;5.37;;;10.90;99.90;;;;;;4958613;29;20460;-80
2023/11/14 04:01:07;;;;;;;18.07;4.23;;;10.90;99.90;;;;;;4956550;29;20957;-81
2023/11/14 04:03:34;;;;;;;23.20;4.73;;;10.90;99.90;;;;;;4960252;29;20991;-81
2023/11/14 04:06:01;;;;;;;17.27;4.90;;;10.90;99.90;;;;;;4958600;29;20485;-80
2023/11/14 04:08:29;;;;;;;26.30;5.87;;;10.90;99.90;;;;;;4958027;28;20455;-80
2023/11/14 04:10:56;;;;;;;22.53;4.00;;;11.00;99.90;;;;;;4960632;29;20437;-81
2023/11/14 04:13:23;;;;;;;16.10;3.60;;;11.00;99.90;;;;;;4942595;29;20543;-82
2023/11/14 04:15:49;;;;;;;14.97;4.50;;;11.00;99.90;;;;;;4958264;29;20491;-79
2023/11/14 04:18:16;;;;;;;17.87;4.13;;;11.00;99.90;;;;;;4960260;29;20909;-79
2023/11/14 04:20:43;;;;;;;19.50;4.40;;;11.10;99.90;;;;;;4956403;29;20496;-81
2023/11/14 04:23:10;;;;;;;29.20;4.27;;;11.20;99.90;;;;;;4956887;29;20961;-80
2023/11/14 04:25:38;;;;;;;13.07;3.17;;;11.20;99.90;;;;;;4957467;29;20477;-80
2023/11/14 04:28:05;;;;;;;20.33;4.67;;;11.30;99.90;;;;;;4957727;29;20458;-81
2023/11/14 04:30:32;;;;;;;21.07;4.73;;;11.30;99.90;;;;;;4957206;29;20459;-79
2023/11/14 04:32:59;;;;;;;18.83;5.00;;;11.40;99.90;;;;;;4957259;29;20975;-79
2023/11/14 04:35:26;;;;;;;21.53;4.43;;;11.50;99.90;;;;;;4956569;29;20477;-79
2023/11/14 04:37:55;;;;;;;19.77;4.43;;;11.50;99.90;;;;;;4956756;29;20941;-80
2023/11/14 04:40:22;;;;;;;14.10;3.80;;;11.50;99.90;;;;;;4957326;29;20538;-80
2023/11/14 04:42:50;;;;;;;17.27;4.30;;;11.50;99.90;;;;;;4945191;29;20544;-79
2023/11/14 04:45:17;;;;;;;24.43;4.80;;;11.60;99.90;;;;;;4937648;29;20488;-79
2023/11/14 04:47:44;;;;;;;21.73;4.00;;;11.60;99.90;;;;;;4939105;29;20464;-79
2023/11/14 04:50:12;;;;;;;14.63;3.67;;;11.60;99.90;;;;;;4939114;29;20466;-79
2023/11/14 04:52:39;;;;;;;18.93;3.30;;;11.70;99.90;;;;;;4947347;29;20902;-78
2023/11/14 04:55:06;;;;;;;16.90;5.10;;;11.70;99.90;;;;;;4957232;29;20480;-79
2023/11/14 04:57:33;;;;;;;18.33;6.00;;;11.70;99.90;;;;;;4957060;29;20456;-79
2023/11/14 05:00:03;;;;;;;19.10;3.77;;;11.70;99.90;;;;;;4952463;29;20489;-79
2023/11/14 05:02:30;;;;;;;24.80;5.10;;;11.70;99.90;;;;;;4957589;29;20464;-79
2023/11/14 05:04:57;;;;;;;17.30;5.00;;;11.80;99.90;;;;;;4946407;29;20916;-80
2023/11/14 05:07:24;;;;;;;18.37;3.77;;;11.70;99.90;;;;;;4957460;29;20967;-81
2023/11/14 05:09:52;;;;;;;15.50;5.67;;;11.80;99.90;;;;;;4956464;29;20454;-79
2023/11/14 05:12:18;;;;;;;19.97;3.70;;;11.80;99.90;;;;;;4956330;29;20507;-80
2023/11/14 05:14:46;;;;;;;19.63;4.53;;;11.90;99.90;;;;;;4938346;29;20469;-80
2023/11/14 05:17:14;;;;;;;22.87;4.67;;;11.80;99.90;;;;;;4939104;29;20873;-78
2023/11/14 05:19:42;;;;;;;17.40;4.47;;;11.80;99.90;;;;;;4949598;28;20502;-80
2023/11/14 05:22:08;;;;;;;22.40;5.07;;;11.80;99.90;;;;;;4957784;29;20858;-80
2023/11/14 05:24:35;;;;;;;13.50;4.50;;;11.80;99.90;;;;;;4957348;29;20485;-80
2023/11/14 05:27:03;;;;;;;13.63;4.00;;;11.80;99.90;;;;;;4957035;29;20466;-80
2023/11/14 05:29:29;;;;;;;16.20;3.77;;;11.80;99.90;;;;;;4957121;29;20466;-81
2023/11/14 05:31:57;;;;;;;15.37;3.83;;;11.80;99.90;;;;;;4958318;29;20459;-80
2023/11/14 05:34:25;;;;;;;14.70;5.93;;;11.80;99.90;;;;;;4958800;29;20470;-80
2023/11/14 05:36:52;;;;;;;23.67;5.57;;;11.80;99.90;;;;;;4957610;29;20557;-81
2023/11/14 05:39:20;;;;;;;14.27;3.67;;;11.80;99.90;;;;;;4957701;29;20456;-81
2023/11/14 05:41:46;;;;;;;23.20;5.47;;;11.80;99.90;;;;;;4955368;29;20824;-81
2023/11/14 05:44:14;;;;;;;23.67;3.90;;;11.90;99.90;;;;;;4962627;29;20458;-81
2023/11/14 05:46:41;;;;;;;14.13;4.20;;;11.80;99.90;;;;;;4964604;29;20843;-83
2023/11/14 05:49:08;;;;;;;21.03;4.87;;;11.80;99.90;;;;;;4964741;29;20465;-79
2023/11/14 05:51:38;;;;;;;16.83;3.80;;;11.90;99.90;;;;;;4960077;29;20465;-80
2023/11/14 05:54:05;;;;;;;17.33;3.90;;;11.80;99.90;;;;;;4952801;29;20460;-80
2023/11/14 05:56:32;;;;;;;16.27;3.50;;;11.80;99.90;;;;;;4956466;28;20566;-80
2023/11/14 05:58:59;;;;;;;16.00;3.43;;;11.90;99.90;;;;;;4956908;29;20471;-78
2023/11/14 06:01:26;;;;;;;15.47;5.10;;;11.80;99.90;;;;;;4954204;29;21057;-77
2023/11/14 06:03:53;;;;;;;20.10;3.50;;;11.80;99.90;;;;;;4950496;29;20458;-77
2023/11/14 06:06:20;;;;;;;17.03;3.87;;;11.80;99.90;;;;;;4945965;29;20989;-79
2023/11/14 06:08:48;;;;;;;15.87;3.60;;;11.80;99.90;;;;;;4949216;29;20490;-79
2023/11/14 06:11:15;;;;;;;18.17;5.27;;;11.80;99.90;;;;;;4947130;29;20452;-79
2023/11/14 06:13:41;;;;;;;18.30;3.70;;;11.70;99.90;;;;;;4952064;29;20454;-78
2023/11/14 06:16:08;;;;;;;21.07;4.23;;;11.70;99.90;;;;;;4948280;29;20487;-79
2023/11/14 06:18:35;;;;;;;17.73;3.60;;;11.80;99.90;;;;;;4955400;29;20456;-78
2023/11/14 06:21:02;;;;;;;14.23;4.10;;;11.90;99.90;;;;;;4955276;29;20500;-78
2023/11/14 06:23:29;;;;;;;20.40;5.77;;;11.80;99.90;;;;;;4955933;29;20464;-80
2023/11/14 06:25:57;;;;;;;14.90;3.77;;;11.80;99.90;;;;;;4955605;29;20492;-79
2023/11/14 06:28:24;;;;;;;20.83;4.00;;;11.80;99.90;;;;;;4954793;29;20461;-79
2023/11/14 06:30:51;;;;;;;14.07;4.30;;;11.80;99.90;;;;;;4951350;29;20459;-79
2023/11/14 06:33:18;;;;;;;12.10;3.37;;;11.80;99.90;;;;;;4958411;28;20471;-80
2023/11/14 06:35:47;;;;;;;19.17;4.37;;;11.80;99.90;;;;;;4959824;29;20550;-81
2023/11/14 06:38:14;;;;;;;18.63;3.50;;;11.80;99.90;;;;;;4958025;29;20564;-78
2023/11/14 06:40:40;;;;;;;17.80;5.63;;;11.80;99.90;;;;;;4959833;29;20484;-79
2023/11/14 06:43:09;;;;;;;24.77;6.20;;;11.90;99.90;;;;;;4955988;29;20461;-81
2023/11/14 06:45:37;;;;;;;27.33;5.50;;;11.90;99.90;;;;;;4959778;29;20487;-79
2023/11/14 06:48:04;;;;;;;14.00;3.70;;;11.90;99.90;;;;;;4955273;28;20464;-82
2023/11/14 06:50:30;;;;;;;15.83;4.60;;;12.00;99.90;;;;;;4955242;29;20452;-80
2023/11/14 06:52:57;;;;;;;18.70;4.17;;;12.00;99.90;;;;;;4950808;29;20472;-80
2023/11/14 06:55:24;;;;;;;13.87;3.73;;;12.00;99.90;;;;;;4959312;29;20480;-81
2023/11/14 06:57:51;;;;;;;19.87;5.17;;;11.90;99.90;;;;;;4960099;29;20458;-82
2023/11/14 07:00:20;;;;;;;17.83;4.23;;;11.90;99.90;;;;;;4951416;29;20504;-79
2023/11/14 07:02:47;;;;;;;25.60;4.67;;;11.90;99.90;;;;;;4955140;29;20972;-82
2023/11/14 07:05:14;;;;;;;25.57;5.00;;;11.90;99.90;;;;;;4959872;29;20501;-80
2023/11/14 07:07:40;;;;;;;22.60;4.80;;;11.90;99.90;;;;;;4952234;28;20508;-81
2023/11/14 07:10:08;;;;;;;22.37;5.97;;;11.90;99.90;;;;;;4940329;29;20456;-81
2023/11/14 07:12:35;;;;;;;25.80;5.17;;;11.90;99.90;;;;;;4941215;29;20457;-79
2023/11/14 07:15:04;;;;;;;20.33;4.47;;;12.00;99.90;;;;;;4942703;29;20477;-80
2023/11/14 07:17:46;;;;;;;16.77;4.00;;;12.00;99.90;;;;;;4947996;29;20487;-80
2023/11/14 07:20:13;;;;;;;16.33;3.37;;;12.00;99.90;;;;;;4953116;28;20513;-79
2023/11/14 07:22:41;;;;;;;15.13;3.57;;;12.00;99.90;;;;;;4941735;29;20477;-80
2023/11/14 07:25:09;;;;;;;17.50;4.50;;;12.00;99.90;;;;;;4940994;29;20488;-80
2023/11/14 07:27:38;;;;;;;19.93;4.10;;;12.10;99.90;;;;;;4961972;29;20468;-78
2023/11/14 07:30:06;;;;;;;15.97;3.83;;;12.10;99.90;;;;;;4956528;29;20472;-82
2023/11/14 07:32:34;;;;;;;24.87;4.93;;;12.10;99.90;;;;;;4952677;28;20457;-79
2023/11/14 07:35:01;;;;;;;17.50;3.90;;;12.00;99.90;;;;;;4959871;29;20584;-78
2023/11/14 07:37:28;;;;;;;13.37;4.43;;;12.10;99.90;;;;;;4961421;29;20440;-78
2023/11/14 07:39:55;;;;;;;15.47;4.50;;;12.20;99.90;;;;;;4953644;29;20540;-78
2023/11/14 07:42:23;;;;;;;17.97;4.40;;;12.20;99.90;;;;;;4951406;29;20458;-78
2023/11/14 07:44:50;;;;;;;18.20;4.70;;;12.30;99.90;;;;;;4968031;28;21049;-79
2023/11/14 07:47:17;;;;;;;23.63;6.00;;;12.30;99.90;;;;;;4972903;29;20476;-79
2023/11/14 07:49:45;;;;;;;16.33;3.80;;;12.30;99.90;;;;;;4965687;29;20532;-80
2023/11/14 07:52:12;;;;;;;20.07;5.37;;;12.40;99.90;;;;;;4959971;29;20464;-81
2023/11/14 07:54:39;;;;;;;14.20;4.03;;;12.40;99.90;;;;;;4960507;29;20457;-82
2023/11/14 07:57:06;;;;;;;19.30;4.83;;;12.30;99.90;;;;;;4960973;29;20842;-81
2023/11/14 07:59:33;;;;;;;18.37;4.20;;;12.20;99.90;;;;;;4960481;29;20456;-81
2023/11/14 08:01:59;;;;;;;18.63;4.77;;;12.20;99.90;;;;;;4960694;29;20496;-81
2023/11/14 08:04:26;;;;;;;19.50;4.20;;;12.30;99.90;;;;;;4960255;29;20453;-80
2023/11/14 08:06:55;;;;;;;15.70;3.77;;;12.30;99.90;;;;;;4959412;29;20476;-82
2023/11/14 08:09:21;;;;;;;13.60;4.53;;;12.40;99.90;;;;;;4960986;29;20472;-82
2023/11/14 08:11:48;;;;;;;15.83;4.90;;;12.50;99.90;;;;;;4965404;29;20450;-80
2023/11/14 08:14:15;;;;;;;21.13;3.93;;;12.50;99.90;;;;;;4950232;29;20446;-82
2023/11/14 08:16:42;;;;;;;20.50;4.20;;;12.60;99.90;;;;;;4947323;29;20479;-82
2023/11/14 08:19:09;;;;;;;17.17;4.30;;;12.60;99.90;;;;;;4958342;29;20474;-80
2023/11/14 08:21:36;;;;;;;13.97;3.27;;;12.60;99.90;;;;;;4956300;29;20502;-81
2023/11/14 08:24:05;;;;;;;15.27;3.77;;;12.60;99.90;;;;;;4958081;29;20469;-80
2023/11/14 08:26:32;;;;;;;16.27;3.57;;;12.60;99.90;;;;;;4955422;29;20570;-82
2023/11/14 08:28:59;;;;;;;14.33;2.80;;;12.70;99.90;;;;;;4955549;29;20848;-81
2023/11/14 08:31:25;;;;;;;26.23;4.40;;;12.80;99.90;;;;;;4954485;29;20822;-80
2023/11/14 08:33:52;;;;;;;27.00;4.63;;;12.80;99.10;;;;;;4956105;29;20472;-82
2023/11/14 08:36:19;;;;;;;15.77;3.93;;;12.80;99.00;;;;;;4954478;29;20471;-80
2023/11/14 08:38:46;;;;;;;21.73;3.80;;;12.80;99.90;;;;;;4955159;29;20518;-82
2023/11/14 08:41:14;;;;;;;12.90;3.40;;;13.00;99.90;;;;;;4956208;29;20484;-82
2023/11/14 08:43:42;;;;;;;15.00;4.20;;;13.00;86.60;;;;;;4954690;29;20454;-81
2023/11/14 08:46:09;;;;;;;16.27;3.67;;;13.10;73.10;;;;;;4952109;29;20480;-83
2023/11/14 08:48:36;;;;;;;16.13;4.10;;;13.00;91.60;;;;;;4953715;29;20480;-81
2023/11/14 08:51:03;;;;;;;13.73;4.43;;;13.00;94.20;;;;;;4955397;29;20457;-80
2023/11/14 08:53:30;;;;;;;15.57;3.70;;;13.00;87.70;;;;;;4955947;29;20455;-82
2023/11/14 08:55:57;;;;;;;22.23;4.80;;;13.10;85.40;;;;;;4955148;28;20561;-82
2023/11/14 08:58:25;;;;;;;13.07;3.93;;;13.30;77.70;;;;;;4953114;29;20445;-82
2023/11/14 09:00:54;;;;;;;14.73;4.50;;;13.30;75.80;;;;;;4956115;29;20496;-81
2023/11/14 09:03:21;;;;;;;15.63;3.80;;;13.20;63.10;;;;;;4953723;29;20492;-82
2023/11/14 09:05:48;;;;;;;15.80;3.30;;;13.20;82.30;;;;;;4955102;29;20488;-80
2023/11/14 09:08:15;;;;;;;17.80;4.23;;;13.30;91.70;;;;;;4957535;29;20551;-82
2023/11/14 09:10:44;;;;;;;10.07;2.93;;;13.30;66.10;;;;;;4954633;29;20457;-81
2023/11/14 09:13:12;;;;;;;12.93;3.60;;;13.20;81.20;;;;;;4952788;29;20445;-82
2023/11/14 09:15:40;;;;;;;18.93;4.10;;;13.00;94.30;;;;;;4953881;29;20502;-80
2023/11/14 09:18:07;;;;;;;26.33;4.97;;;13.10;78.70;;;;;;4953084;29;20972;-82
2023/11/14 09:20:34;;;;;;;13.13;3.57;;;13.20;92.40;;;;;;4954268;29;20466;-83
2023/11/14 09:23:02;;;;;;;18.33;6.43;;;13.30;83.70;;;;;;4957180;29;20450;-80
2023/11/14 09:25:29;;;;;;;7.03;2.70;;;13.40;69.20;;;;;;4957651;29;20530;-81
2023/11/14 09:27:56;;;;;;;17.97;3.20;;;13.60;47.60;;;;;;4957571;29;20459;-82
2023/11/14 09:30:23;;;;;;;10.17;2.73;;;13.60;23.00;;;;;;4956788;29;20562;-82
2023/11/14 09:32:52;;;;;;;13.70;3.33;;;13.60;25.30;;;;;;4955815;29;20463;-81
2023/11/14 09:35:18;;;;;;;22.30;8.60;;;13.60;15.50;;;;;;4957375;29;20494;-82
2023/11/14 09:37:46;;;;;;;20.23;5.13;;;13.70;23.20;;;;;;4957319;29;21000;-81
2023/11/14 09:40:17;;;;;;;15.23;4.43;;;13.60;26.10;;;;;;4957739;29;20483;-80
2023/11/14 09:42:44;;;;;;;13.47;3.80;;;13.60;26.40;;;;;;4957457;29;20499;-81
2023/11/14 09:45:12;;;;;;;16.20;3.50;;;13.50;17.90;;;;;;4957219;29;20514;-84
2023/11/14 09:47:39;;;;;;;10.87;2.73;;;13.50;27.70;;;;;;4956173;29;20463;-82
2023/11/14 09:50:09;;;;;;;9.40;3.70;;;13.60;30.60;;;;;;4956762;29;20456;-80
2023/11/14 09:52:36;;;;;;;10.50;2.73;;;13.70;24.90;;;;;;4957033;29;21041;-81
2023/11/14 09:55:03;;;;;;;10.97;2.90;;;13.70;17.50;;;;;;4957437;29;20543;-82
2023/11/14 09:57:30;;;;;;;15.87;3.93;;;13.90;5.30;;;;;;4956241;29;20453;-81
2023/11/14 09:59:58;;;;;;;17.33;3.77;;;13.80;13.90;;;;;;4956383;29;20456;-80
2023/11/14 10:02:24;;;;;;;19.63;4.00;;;13.80;14.10;;;;;;4954668;28;20940;-81
2023/11/14 10:04:51;;;;;;;17.47;3.53;;;13.80;32.50;;;;;;4953679;29;20477;-83
2023/11/14 10:07:21;;;;;;;15.10;3.67;;;13.80;1.00;;;;;;4955807;29;20843;-81
2023/11/14 10:09:48;;;;;;;17.30;4.00;;;13.70;16.70;;;;;;4956898;29;20473;-82
2023/11/14 10:12:32;;;;;;;15.13;4.67;;;13.70;28.00;;;;;;4953054;29;20468;-80
2023/11/14 10:14:58;;;;;;;16.17;4.47;;;13.70;29.00;;;;;;4953141;29;20474;-82
2023/11/14 10:17:29;;;;;;;14.00;3.80;;;13.70;33.30;;;;;;4954990;29;20456;-80
2023/11/14 10:20:01;;;;;;;8.37;3.13;;;13.70;24.90;;;;;;4953836;29;20481;-82
2023/11/14 10:22:33;;;;;;;14.00;5.00;;;13.70;42.60;;;;;;4949903;29;20939;-81
2023/11/14 10:24:59;;;;;;;12.77;3.80;;;13.70;42.70;;;;;;4954732;29;20857;-81
2023/11/14 10:27:27;;;;;;;17.37;3.53;;;13.70;18.10;;;;;;4955458;29;20459;-80
2023/11/14 10:29:54;;;;;;;11.60;3.20;;;13.80;1.00;;;;;;4954903;29;20457;-81
2023/11/14 10:32:23;;;;;;;14.00;3.70;;;13.80;5.50;;;;;;4955331;29;20899;-81
2023/11/14 10:34:51;;;;;;;20.57;4.60;;;13.80;1.00;;;;;;4954141;29;20464;-81
2023/11/14 10:37:32;;;;;;;18.93;3.77;;;13.70;2.10;;;;;;4955938;29;20461;-81
2023/11/14 10:40:02;;;;;;;18.60;3.70;;;13.70;4.90;;;;;;4951737;29;20465;-83
2023/11/14 10:42:29;;;;;;;13.20;4.20;;;13.80;1.00;;;;;;4948456;29;20492;-81
2023/11/14 10:44:59;;;;;;;17.77;3.90;;;13.70;1.00;;;;;;4946581;29;20481;-82
2023/11/14 10:47:38;;;;;;;20.77;4.93;;;13.80;2.80;;;;;;4949344;29;20495;-81
2023/11/14 10:50:06;;;;;;;16.83;4.53;;;13.80;9.90;;;;;;4955465;29;20469;-82
2023/11/14 10:52:36;;;;;;;15.80;3.60;;;13.90;1.00;;;;;;4954911;29;20453;-83
2023/11/14 10:55:05;;;;;;;13.20;3.60;;;14.00;1.00;;;;;;4949525;29;20557;-82
2023/11/14 10:57:33;;;;;;;15.37;3.40;;;14.10;1.00;;;;;;4956144;29;20471;-79
2023/11/14 11:00:08;;;;;;;17.60;4.73;;;14.00;1.00;;;;;;4956521;29;20814;-82
2023/11/14 11:02:37;;;;;;;20.30;3.50;;;14.00;1.00;;;;;;4956173;29;20499;-82
2023/11/14 11:05:05;;;;;;;15.93;3.60;;;14.00;1.00;;;;;;4956927;29;20486;-81
2023/11/14 11:07:32;;;;;;;13.63;3.57;;;13.90;1.00;;;;;;4956765;29;20551;-83
2023/11/14 11:10:00;;;;;;;12.33;3.90;;;13.80;5.60;;;;;;4956713;29;20467;-83
2023/11/14 11:12:29;;;;;;;16.07;3.70;;;13.80;23.90;;;;;;4965568;29;20993;-81
2023/11/14 11:14:56;;;;;;;9.83;2.73;;;13.80;37.80;;;;;;4962838;29;20503;-82
2023/11/14 11:17:38;;;;;;;14.30;3.40;;;13.80;48.10;;;;;;4957931;28;20463;-80
2023/11/14 11:20:06;;;;;;;18.53;3.10;;;14.30;1.00;;;;;;4960313;29;20460;-82
2023/11/14 11:23:02;;;;;;;9.60;3.43;;;14.90;1.00;;;;;;4959632;29;20494;-82
2023/11/14 11:25:32;;;;;;;12.80;3.90;;;14.90;1.00;;;;;;4958650;29;20473;-83
2023/11/14 11:27:59;;;;;;;17.37;4.07;;;14.60;1.00;;;;;;4954485;28;20992;-82
2023/11/14 11:30:26;;;;;;;9.50;2.50;;;14.60;1.00;;;;;;4960166;29;20463;-82
2023/11/14 11:32:55;;;;;;;14.57;3.10;;;14.50;1.00;;;;;;4961668;29;20541;-82
2023/11/14 11:35:26;;;;;;;7.57;2.33;;;14.50;1.00;;;;;;4960432;29;20490;-82
2023/11/14 11:37:54;;;;;;;10.33;2.63;;;14.50;1.00;;;;;;4960618;29;20497;-83
2023/11/14 11:40:25;;;;;;;7.47;1.70;;;14.40;1.00;;;;;;4960846;29;20460;-82
2023/11/14 11:42:55;;;;;;;9.07;2.43;;;14.10;1.00;;;;;;4960308;29;20493;-83
2023/11/14 11:45:41;;;;;;;12.47;2.77;;;14.00;1.00;;;;;;4960135;29;20477;-82
2023/11/14 11:48:26;;;;;;;5.73;1.67;;;13.90;1.00;;;;;;4960623;29;20461;-82
2023/11/14 11:50:54;;;;;;;15.17;3.60;;;13.90;1.00;;;;;;4960380;29;20459;-82
2023/11/14 11:53:40;;;;;;;9.90;2.33;;;14.00;1.00;;;;;;4961444;29;20951;-83
2023/11/14 11:56:08;;;;;;;5.70;1.57;;;14.00;1.00;;;;;;4960991;29;20488;-82
2023/11/14 11:58:47;;;;;;;10.60;2.33;;;13.90;5.10;;;;;;4960464;29;20464;-82
2023/11/14 12:01:15;;;;;;;9.53;2.10;;;13.90;15.60;;;;;;4961122;29;20516;-80
2023/11/14 12:03:42;;;;;;;11.43;2.13;;;13.80;36.90;;;;;;4961117;29;20452;-82
2023/11/14 12:06:10;;;;;;;12.20;2.57;;;13.90;38.50;;;;;;4962198;29;20572;-82
2023/11/14 12:08:37;;;;;;;14.20;3.20;;;13.80;59.60;;;;;;4961433;29;20457;-82
2023/11/14 12:11:14;;;;;;;16.00;3.20;;;13.80;76.00;;;;;;4965343;29;20463;-83
2023/11/14 12:13:41;;;;;;;8.60;2.53;;;13.80;84.40;;;;;;4958675;29;20448;-83
2023/11/14 12:16:11;;;;;;;9.10;2.30;;;13.70;84.50;;;;;;4959830;29;20474;-82
2023/11/14 12:18:38;;;;;;;10.20;2.77;;;13.90;65.90;;;;;;4957842;29;20449;-83
2023/11/14 12:21:08;;;;;;;12.77;3.30;;;13.90;72.60;;;;;;4958047;29;20467;-83
2023/11/14 12:23:35;;;;;;;10.00;2.90;;;13.70;86.60;;;;;;4959171;29;21032;-83
2023/11/14 12:26:02;;;;;;;10.20;2.80;;;13.70;88.40;;;;;;4959225;29;20474;-84
2023/11/14 12:28:36;;;;;;;8.70;2.80;;;13.60;99.90;;;;;;4958610;29;20452;-83
2023/11/14 12:31:04;;;;;;;13.83;3.00;;;13.60;99.90;;;;;;4956219;29;20897;-82
2023/11/14 12:33:43;;;;;;;11.10;2.83;;;13.60;94.20;;;;;;4947968;29;20459;-84
2023/11/14 12:36:21;;;;;;;18.73;3.33;;;13.60;91.50;;;;;;4952446;29;20480;-83
2023/11/14 12:38:48;;;;;;;9.33;2.80;;;13.50;98.80;;;;;;4940880;29;20508;-83
2023/11/14 12:41:16;;;;;;;11.13;2.40;;;13.50;99.90;;;;;;4940233;29;20452;-83